sensor_id;sensor_type;location;lat;lon;timestamp;P1;durP1;ratioP1;P2;durP2;ratioP2
928;SDS011;451;47.988;7.842;2022-08-11T00:04:26;3.30;;;3.00;;
928;SDS011;451;47.988;7.842;2022-08-11T00:22:39;3.30;;;3.00;;
928;SDS011;451;47.988;7.842;2022-08-11T00:31:47;3.50;;;2.97;;
928;SDS011;451;47.988;7.842;2022-08-11T01:18:19;4.83;;;3.90;;
928;SDS011;451;47.988;7.842;2022-08-11T02:06:41;3.90;;;3.60;;
928;SDS011;451;47.988;7.842;2022-08-11T02:16:07;4.00;;;3.50;;
928;SDS011;451;47.988;7.842;2022-08-11T02:25:23;4.20;;;3.90;;
928;SDS011;451;47.988;7.842;2022-08-11T02:43:35;3.57;;;3.27;;
928;SDS011;451;47.988;7.842;2022-08-11T02:52:47;4.33;;;4.00;;
928;SDS011;451;47.988;7.842;2022-08-11T03:02:03;3.93;;;3.60;;
928;SDS011;451;47.988;7.842;2022-08-11T03:21:10;4.00;;;3.60;;
928;SDS011;451;47.988;7.842;2022-08-11T03:39:39;4.43;;;3.70;;
928;SDS011;451;47.988;7.842;2022-08-11T04:17:47;4.57;;;4.13;;
928;SDS011;451;47.988;7.842;2022-08-11T04:37:08;4.10;;;3.80;;
928;SDS011;451;47.988;7.842;2022-08-11T04:56:05;4.83;;;4.30;;
928;SDS011;451;47.988;7.842;2022-08-11T05:14:54;4.93;;;4.40;;
928;SDS011;451;47.988;7.842;2022-08-11T05:24:24;11.43;;;4.47;;
928;SDS011;451;47.988;7.842;2022-08-11T05:34:00;5.93;;;5.33;;
928;SDS011;451;47.988;7.842;2022-08-11T05:43:26;4.80;;;4.40;;
928;SDS011;451;47.988;7.842;2022-08-11T05:52:47;5.00;;;4.50;;
928;SDS011;451;47.988;7.842;2022-08-11T06:02:07;4.77;;;4.00;;
928;SDS011;451;47.988;7.842;2022-08-11T06:11:09;5.93;;;4.13;;
928;SDS011;451;47.988;7.842;2022-08-11T06:20:12;4.57;;;4.17;;
928;SDS011;451;47.988;7.842;2022-08-11T06:29:15;4.60;;;4.20;;
928;SDS011;451;47.988;7.842;2022-08-11T06:38:23;7.83;;;5.20;;
928;SDS011;451;47.988;7.842;2022-08-11T06:47:45;5.20;;;4.40;;
928;SDS011;451;47.988;7.842;2022-08-11T06:56:48;4.83;;;4.30;;
928;SDS011;451;47.988;7.842;2022-08-11T07:15:33;4.97;;;4.43;;
928;SDS011;451;47.988;7.842;2022-08-11T07:25:02;5.77;;;4.37;;
928;SDS011;451;47.988;7.842;2022-08-11T07:34:35;4.63;;;4.10;;
928;SDS011;451;47.988;7.842;2022-08-11T07:43:41;5.30;;;4.80;;
928;SDS011;451;47.988;7.842;2022-08-11T07:52:45;9.37;;;5.57;;
928;SDS011;451;47.988;7.842;2022-08-11T08:01:47;5.80;;;5.17;;
928;SDS011;451;47.988;7.842;2022-08-11T08:11:08;6.83;;;4.97;;
928;SDS011;451;47.988;7.842;2022-08-11T08:20:37;5.63;;;5.13;;
928;SDS011;451;47.988;7.842;2022-08-11T08:29:40;4.97;;;4.47;;
928;SDS011;451;47.988;7.842;2022-08-11T08:39:03;6.80;;;5.27;;
928;SDS011;451;47.988;7.842;2022-08-11T08:48:07;5.47;;;5.00;;
928;SDS011;451;47.988;7.842;2022-08-11T08:57:17;6.47;;;5.00;;
928;SDS011;451;47.988;7.842;2022-08-11T09:06:20;7.77;;;4.97;;
928;SDS011;451;47.988;7.842;2022-08-11T09:15:22;8.67;;;4.20;;
928;SDS011;451;47.988;7.842;2022-08-11T09:24:24;5.80;;;4.87;;
928;SDS011;451;47.988;7.842;2022-08-11T09:33:45;5.20;;;4.70;;
928;SDS011;451;47.988;7.842;2022-08-11T09:42:47;4.73;;;4.33;;
928;SDS011;451;47.988;7.842;2022-08-11T09:52:09;4.33;;;3.70;;
928;SDS011;451;47.988;7.842;2022-08-11T10:01:15;4.67;;;4.27;;
928;SDS011;451;47.988;7.842;2022-08-11T10:10:27;4.43;;;4.03;;
928;SDS011;451;47.988;7.842;2022-08-11T10:19:33;4.87;;;4.47;;
928;SDS011;451;47.988;7.842;2022-08-11T10:28:38;5.40;;;4.07;;
928;SDS011;451;47.988;7.842;2022-08-11T10:37:41;4.10;;;3.80;;
928;SDS011;451;47.988;7.842;2022-08-11T10:46:45;4.53;;;4.13;;
928;SDS011;451;47.988;7.842;2022-08-11T10:56:06;5.17;;;4.77;;
928;SDS011;451;47.988;7.842;2022-08-11T11:05:29;4.50;;;4.20;;
928;SDS011;451;47.988;7.842;2022-08-11T11:14:32;4.80;;;4.00;;
928;SDS011;451;47.988;7.842;2022-08-11T11:24:03;5.40;;;4.10;;
928;SDS011;451;47.988;7.842;2022-08-11T11:33:19;4.80;;;4.30;;
928;SDS011;451;47.988;7.842;2022-08-11T11:42:38;4.17;;;3.77;;
928;SDS011;451;47.988;7.842;2022-08-11T11:51:41;4.50;;;4.10;;
928;SDS011;451;47.988;7.842;2022-08-11T12:00:44;4.83;;;4.50;;
928;SDS011;451;47.988;7.842;2022-08-11T12:10:06;4.70;;;4.13;;
928;SDS011;451;47.988;7.842;2022-08-11T12:19:10;4.50;;;4.10;;
928;SDS011;451;47.988;7.842;2022-08-11T12:28:21;4.20;;;3.90;;
928;SDS011;451;47.988;7.842;2022-08-11T12:37:40;4.13;;;3.72;;
928;SDS011;451;47.988;7.842;2022-08-11T12:46:45;4.17;;;3.87;;
928;SDS011;451;47.988;7.842;2022-08-11T12:55:48;5.00;;;4.27;;
928;SDS011;451;47.988;7.842;2022-08-11T13:05:13;4.43;;;4.03;;
928;SDS011;451;47.988;7.842;2022-08-11T13:14:16;4.10;;;3.70;;
928;SDS011;451;47.988;7.842;2022-08-11T13:23:19;4.27;;;3.97;;
928;SDS011;451;47.988;7.842;2022-08-11T13:32:22;4.40;;;4.10;;
928;SDS011;451;47.988;7.842;2022-08-11T13:41:26;3.60;;;3.30;;
928;SDS011;451;47.988;7.842;2022-08-11T13:50:39;3.93;;;3.63;;
928;SDS011;451;47.988;7.842;2022-08-11T14:00:00;4.23;;;3.93;;
928;SDS011;451;47.988;7.842;2022-08-11T14:09:14;4.13;;;3.73;;
928;SDS011;451;47.988;7.842;2022-08-11T14:18:24;3.90;;;3.60;;
928;SDS011;451;47.988;7.842;2022-08-11T14:27:27;4.23;;;3.93;;
928;SDS011;451;47.988;7.842;2022-08-11T14:36:38;4.57;;;4.07;;
928;SDS011;451;47.988;7.842;2022-08-11T14:45:43;4.10;;;3.50;;
928;SDS011;451;47.988;7.842;2022-08-11T14:55:05;4.33;;;3.93;;
928;SDS011;451;47.988;7.842;2022-08-11T15:04:27;4.37;;;4.07;;
928;SDS011;451;47.988;7.842;2022-08-11T15:13:28;4.40;;;3.70;;
928;SDS011;451;47.988;7.842;2022-08-11T15:22:32;4.13;;;3.70;;
928;SDS011;451;47.988;7.842;2022-08-11T15:31:53;4.20;;;3.80;;
928;SDS011;451;47.988;7.842;2022-08-11T15:41:14;3.83;;;3.53;;
928;SDS011;451;47.988;7.842;2022-08-11T15:50:40;3.97;;;3.57;;
928;SDS011;451;47.988;7.842;2022-08-11T15:59:46;5.27;;;4.63;;
928;SDS011;451;47.988;7.842;2022-08-11T16:09:13;4.63;;;3.83;;
928;SDS011;451;47.988;7.842;2022-08-11T16:18:17;4.73;;;4.20;;
928;SDS011;451;47.988;7.842;2022-08-11T16:27:20;4.37;;;3.97;;
928;SDS011;451;47.988;7.842;2022-08-11T16:36:23;4.50;;;4.20;;
928;SDS011;451;47.988;7.842;2022-08-11T16:45:45;4.53;;;4.10;;
928;SDS011;451;47.988;7.842;2022-08-11T16:55:07;5.90;;;4.63;;
928;SDS011;451;47.988;7.842;2022-08-11T17:04:15;5.00;;;4.60;;
928;SDS011;451;47.988;7.842;2022-08-11T17:14:04;5.60;;;5.10;;
928;SDS011;451;47.988;7.842;2022-08-11T17:23:09;5.10;;;4.70;;
928;SDS011;451;47.988;7.842;2022-08-11T17:32:31;5.67;;;4.40;;
928;SDS011;451;47.988;7.842;2022-08-11T17:41:54;5.33;;;4.70;;
928;SDS011;451;47.988;7.842;2022-08-11T17:51:18;5.50;;;5.10;;
928;SDS011;451;47.988;7.842;2022-08-11T18:00:39;6.07;;;5.57;;
928;SDS011;451;47.988;7.842;2022-08-11T18:09:42;5.23;;;4.83;;
928;SDS011;451;47.988;7.842;2022-08-11T18:19:03;5.97;;;4.80;;
928;SDS011;451;47.988;7.842;2022-08-11T18:28:26;5.53;;;5.03;;
928;SDS011;451;47.988;7.842;2022-08-11T18:37:51;5.60;;;5.10;;
928;SDS011;451;47.988;7.842;2022-08-11T18:47:13;5.70;;;5.07;;
928;SDS011;451;47.988;7.842;2022-08-11T18:56:35;6.57;;;4.83;;
928;SDS011;451;47.988;7.842;2022-08-11T19:05:57;5.73;;;5.20;;
928;SDS011;451;47.988;7.842;2022-08-11T19:15:20;6.77;;;5.80;;
928;SDS011;451;47.988;7.842;2022-08-11T19:24:42;6.10;;;5.50;;
928;SDS011;451;47.988;7.842;2022-08-11T19:34:06;6.50;;;5.90;;
928;SDS011;451;47.988;7.842;2022-08-11T19:43:28;5.57;;;5.07;;
928;SDS011;451;47.988;7.842;2022-08-11T19:52:50;6.60;;;5.77;;
928;SDS011;451;47.988;7.842;2022-08-11T20:02:12;6.43;;;5.60;;
928;SDS011;451;47.988;7.842;2022-08-11T20:11:38;5.73;;;5.23;;
928;SDS011;451;47.988;7.842;2022-08-11T20:21:00;5.90;;;5.40;;
928;SDS011;451;47.988;7.842;2022-08-11T20:30:21;5.90;;;5.30;;
928;SDS011;451;47.988;7.842;2022-08-11T20:39:42;6.47;;;5.87;;
928;SDS011;451;47.988;7.842;2022-08-11T20:49:04;5.97;;;5.37;;
928;SDS011;451;47.988;7.842;2022-08-11T20:58:25;6.33;;;5.70;;
928;SDS011;451;47.988;7.842;2022-08-11T21:07:49;6.17;;;5.57;;
928;SDS011;451;47.988;7.842;2022-08-11T21:17:11;5.93;;;5.43;;
928;SDS011;451;47.988;7.842;2022-08-11T21:26:33;6.50;;;5.90;;
928;SDS011;451;47.988;7.842;2022-08-11T21:35:57;6.03;;;5.53;;
928;SDS011;451;47.988;7.842;2022-08-11T21:45:19;6.10;;;5.50;;
928;SDS011;451;47.988;7.842;2022-08-11T21:54:40;5.77;;;5.27;;
928;SDS011;451;47.988;7.842;2022-08-11T22:04:02;6.30;;;5.70;;
928;SDS011;451;47.988;7.842;2022-08-11T22:13:23;6.90;;;5.30;;
928;SDS011;451;47.988;7.842;2022-08-11T22:22:43;5.83;;;5.20;;
928;SDS011;451;47.988;7.842;2022-08-11T22:32:04;4.97;;;4.57;;
928;SDS011;451;47.988;7.842;2022-08-11T22:41:27;6.57;;;5.20;;
928;SDS011;451;47.988;7.842;2022-08-11T22:50:47;6.83;;;5.10;;
928;SDS011;451;47.988;7.842;2022-08-11T23:00:08;5.80;;;5.30;;
928;SDS011;451;47.988;7.842;2022-08-11T23:09:29;5.80;;;5.20;;
928;SDS011;451;47.988;7.842;2022-08-11T23:18:50;5.83;;;5.33;;
928;SDS011;451;47.988;7.842;2022-08-11T23:28:11;5.73;;;5.23;;
928;SDS011;451;47.988;7.842;2022-08-11T23:37:33;5.47;;;4.90;;
928;SDS011;451;47.988;7.842;2022-08-11T23:46:55;5.27;;;4.80;;
928;SDS011;451;47.988;7.842;2022-08-11T23:56:18;5.50;;;5.00;;
